sensor_id;sensor_type;location;lat;lon;timestamp;P1;durP1;ratioP1;P2;durP2;ratioP2
39738;SDS011;25422;48.286;8.484;2024-01-25T00:01:20;15.18;;;2.90;;
39738;SDS011;25422;48.286;8.484;2024-01-25T00:03:46;13.52;;;2.80;;
39738;SDS011;25422;48.286;8.484;2024-01-25T00:06:11;14.95;;;2.60;;
39738;SDS011;25422;48.286;8.484;2024-01-25T00:08:37;20.20;;;3.67;;
39738;SDS011;25422;48.286;8.484;2024-01-25T00:11:02;12.60;;;2.85;;
39738;SDS011;25422;48.286;8.484;2024-01-25T00:13:29;18.60;;;3.00;;
39738;SDS011;25422;48.286;8.484;2024-01-25T00:15:54;20.38;;;3.25;;
39738;SDS011;25422;48.286;8.484;2024-01-25T00:18:20;18.90;;;2.70;;
39738;SDS011;25422;48.286;8.484;2024-01-25T00:20:45;14.00;;;3.15;;
39738;SDS011;25422;48.286;8.484;2024-01-25T00:23:11;16.95;;;4.35;;
39738;SDS011;25422;48.286;8.484;2024-01-25T00:25:37;15.38;;;3.70;;
39738;SDS011;25422;48.286;8.484;2024-01-25T00:28:02;9.95;;;2.72;;
39738;SDS011;25422;48.286;8.484;2024-01-25T00:30:28;12.32;;;2.80;;
39738;SDS011;25422;48.286;8.484;2024-01-25T00:32:54;19.70;;;2.92;;
39738;SDS011;25422;48.286;8.484;2024-01-25T00:35:19;16.23;;;2.95;;
39738;SDS011;25422;48.286;8.484;2024-01-25T00:37:45;16.00;;;3.70;;
39738;SDS011;25422;48.286;8.484;2024-01-25T00:40:11;18.02;;;2.90;;
39738;SDS011;25422;48.286;8.484;2024-01-25T00:42:42;9.25;;;2.50;;
39738;SDS011;25422;48.286;8.484;2024-01-25T00:45:09;10.15;;;2.50;;
39738;SDS011;25422;48.286;8.484;2024-01-25T00:47:36;12.30;;;2.85;;
39738;SDS011;25422;48.286;8.484;2024-01-25T00:50:02;11.13;;;2.45;;
39738;SDS011;25422;48.286;8.484;2024-01-25T00:52:27;11.02;;;2.70;;
39738;SDS011;25422;48.286;8.484;2024-01-25T00:54:53;9.00;;;2.42;;
39738;SDS011;25422;48.286;8.484;2024-01-25T00:57:19;15.25;;;2.30;;
39738;SDS011;25422;48.286;8.484;2024-01-25T00:59:45;9.60;;;2.28;;
39738;SDS011;25422;48.286;8.484;2024-01-25T01:02:11;8.60;;;2.20;;
39738;SDS011;25422;48.286;8.484;2024-01-25T01:04:38;11.30;;;2.38;;
39738;SDS011;25422;48.286;8.484;2024-01-25T01:07:04;11.52;;;2.30;;
39738;SDS011;25422;48.286;8.484;2024-01-25T01:09:30;6.90;;;2.42;;
39738;SDS011;25422;48.286;8.484;2024-01-25T01:11:55;12.63;;;2.40;;
39738;SDS011;25422;48.286;8.484;2024-01-25T01:14:20;12.48;;;2.72;;
39738;SDS011;25422;48.286;8.484;2024-01-25T01:16:46;9.15;;;2.13;;
39738;SDS011;25422;48.286;8.484;2024-01-25T01:19:11;10.38;;;2.35;;
39738;SDS011;25422;48.286;8.484;2024-01-25T01:21:37;9.13;;;2.45;;
39738;SDS011;25422;48.286;8.484;2024-01-25T01:24:03;12.98;;;2.60;;
39738;SDS011;25422;48.286;8.484;2024-01-25T01:26:29;10.52;;;2.47;;
39738;SDS011;25422;48.286;8.484;2024-01-25T01:28:54;9.60;;;2.25;;
39738;SDS011;25422;48.286;8.484;2024-01-25T01:31:20;10.18;;;2.17;;
39738;SDS011;25422;48.286;8.484;2024-01-25T01:33:46;11.07;;;2.47;;
39738;SDS011;25422;48.286;8.484;2024-01-25T01:36:11;10.32;;;2.10;;
39738;SDS011;25422;48.286;8.484;2024-01-25T01:38:37;11.43;;;2.15;;
39738;SDS011;25422;48.286;8.484;2024-01-25T01:41:02;11.93;;;2.30;;
39738;SDS011;25422;48.286;8.484;2024-01-25T01:43:28;8.00;;;2.30;;
39738;SDS011;25422;48.286;8.484;2024-01-25T01:45:53;7.40;;;2.00;;
39738;SDS011;25422;48.286;8.484;2024-01-25T01:48:28;7.35;;;2.08;;
39738;SDS011;25422;48.286;8.484;2024-01-25T01:50:53;8.80;;;2.08;;
39738;SDS011;25422;48.286;8.484;2024-01-25T01:53:19;8.93;;;2.13;;
39738;SDS011;25422;48.286;8.484;2024-01-25T01:55:44;10.18;;;2.35;;
39738;SDS011;25422;48.286;8.484;2024-01-25T01:58:10;10.30;;;2.00;;
39738;SDS011;25422;48.286;8.484;2024-01-25T02:00:36;12.13;;;2.70;;
39738;SDS011;25422;48.286;8.484;2024-01-25T02:03:03;10.20;;;1.90;;
39738;SDS011;25422;48.286;8.484;2024-01-25T02:05:29;8.38;;;2.15;;
39738;SDS011;25422;48.286;8.484;2024-01-25T02:07:55;7.55;;;2.38;;
39738;SDS011;25422;48.286;8.484;2024-01-25T02:10:20;10.63;;;2.50;;
39738;SDS011;25422;48.286;8.484;2024-01-25T02:12:45;6.78;;;2.00;;
39738;SDS011;25422;48.286;8.484;2024-01-25T02:15:11;4.78;;;1.77;;
39738;SDS011;25422;48.286;8.484;2024-01-25T02:17:36;7.38;;;1.90;;
39738;SDS011;25422;48.286;8.484;2024-01-25T02:20:02;7.50;;;2.08;;
39738;SDS011;25422;48.286;8.484;2024-01-25T02:22:28;6.32;;;2.13;;
39738;SDS011;25422;48.286;8.484;2024-01-25T02:24:54;6.38;;;2.20;;
39738;SDS011;25422;48.286;8.484;2024-01-25T02:27:19;7.60;;;2.08;;
39738;SDS011;25422;48.286;8.484;2024-01-25T02:29:44;8.18;;;2.53;;
39738;SDS011;25422;48.286;8.484;2024-01-25T02:32:10;12.48;;;2.45;;
39738;SDS011;25422;48.286;8.484;2024-01-25T02:34:36;6.57;;;2.30;;
39738;SDS011;25422;48.286;8.484;2024-01-25T02:37:01;9.20;;;2.53;;
39738;SDS011;25422;48.286;8.484;2024-01-25T02:39:27;9.45;;;2.03;;
39738;SDS011;25422;48.286;8.484;2024-01-25T02:41:53;10.25;;;2.53;;
39738;SDS011;25422;48.286;8.484;2024-01-25T02:44:18;8.68;;;2.50;;
39738;SDS011;25422;48.286;8.484;2024-01-25T02:46:44;10.82;;;2.47;;
39738;SDS011;25422;48.286;8.484;2024-01-25T02:49:10;7.88;;;2.65;;
39738;SDS011;25422;48.286;8.484;2024-01-25T02:51:35;11.68;;;2.38;;
39738;SDS011;25422;48.286;8.484;2024-01-25T02:54:01;6.50;;;2.00;;
39738;SDS011;25422;48.286;8.484;2024-01-25T02:56:26;11.25;;;2.38;;
39738;SDS011;25422;48.286;8.484;2024-01-25T02:58:58;11.07;;;2.25;;
39738;SDS011;25422;48.286;8.484;2024-01-25T03:01:24;6.38;;;1.80;;
39738;SDS011;25422;48.286;8.484;2024-01-25T03:03:49;5.07;;;1.70;;
39738;SDS011;25422;48.286;8.484;2024-01-25T03:06:15;9.13;;;2.00;;
39738;SDS011;25422;48.286;8.484;2024-01-25T03:08:40;8.90;;;2.05;;
39738;SDS011;25422;48.286;8.484;2024-01-25T03:11:06;6.90;;;1.83;;
39738;SDS011;25422;48.286;8.484;2024-01-25T03:13:31;5.63;;;1.80;;
39738;SDS011;25422;48.286;8.484;2024-01-25T03:15:57;8.30;;;2.30;;
39738;SDS011;25422;48.286;8.484;2024-01-25T03:18:22;6.25;;;1.92;;
39738;SDS011;25422;48.286;8.484;2024-01-25T03:20:48;7.43;;;2.22;;
39738;SDS011;25422;48.286;8.484;2024-01-25T03:23:16;10.68;;;2.35;;
39738;SDS011;25422;48.286;8.484;2024-01-25T03:25:41;10.57;;;2.08;;
39738;SDS011;25422;48.286;8.484;2024-01-25T03:28:07;3.75;;;1.48;;
39738;SDS011;25422;48.286;8.484;2024-01-25T03:30:34;4.07;;;1.98;;
39738;SDS011;25422;48.286;8.484;2024-01-25T03:33:00;5.43;;;1.58;;
39738;SDS011;25422;48.286;8.484;2024-01-25T03:35:25;4.22;;;1.60;;
39738;SDS011;25422;48.286;8.484;2024-01-25T03:37:51;4.57;;;1.52;;
39738;SDS011;25422;48.286;8.484;2024-01-25T03:40:16;3.88;;;1.20;;
39738;SDS011;25422;48.286;8.484;2024-01-25T03:42:42;3.40;;;1.27;;
39738;SDS011;25422;48.286;8.484;2024-01-25T03:45:07;4.38;;;1.48;;
39738;SDS011;25422;48.286;8.484;2024-01-25T03:47:33;3.40;;;1.30;;
39738;SDS011;25422;48.286;8.484;2024-01-25T03:49:58;4.32;;;1.50;;
39738;SDS011;25422;48.286;8.484;2024-01-25T03:52:25;6.63;;;1.50;;
39738;SDS011;25422;48.286;8.484;2024-01-25T03:54:50;6.05;;;1.20;;
39738;SDS011;25422;48.286;8.484;2024-01-25T03:57:17;5.07;;;1.50;;
39738;SDS011;25422;48.286;8.484;2024-01-25T03:59:42;2.95;;;1.42;;
39738;SDS011;25422;48.286;8.484;2024-01-25T04:02:08;3.50;;;1.15;;
39738;SDS011;25422;48.286;8.484;2024-01-25T04:04:34;4.30;;;1.20;;
39738;SDS011;25422;48.286;8.484;2024-01-25T04:07:00;6.00;;;1.45;;
39738;SDS011;25422;48.286;8.484;2024-01-25T04:09:25;5.30;;;1.25;;
39738;SDS011;25422;48.286;8.484;2024-01-25T04:11:53;2.08;;;1.30;;
39738;SDS011;25422;48.286;8.484;2024-01-25T04:14:19;1.80;;;1.00;;
39738;SDS011;25422;48.286;8.484;2024-01-25T04:16:45;2.30;;;1.30;;
39738;SDS011;25422;48.286;8.484;2024-01-25T04:19:11;2.53;;;1.23;;
39738;SDS011;25422;48.286;8.484;2024-01-25T04:21:38;2.97;;;1.10;;
39738;SDS011;25422;48.286;8.484;2024-01-25T04:24:03;4.80;;;1.20;;
39738;SDS011;25422;48.286;8.484;2024-01-25T04:26:29;3.00;;;1.48;;
39738;SDS011;25422;48.286;8.484;2024-01-25T04:28:55;7.15;;;1.80;;
39738;SDS011;25422;48.286;8.484;2024-01-25T04:31:20;2.03;;;1.10;;
39738;SDS011;25422;48.286;8.484;2024-01-25T04:33:45;4.68;;;1.27;;
39738;SDS011;25422;48.286;8.484;2024-01-25T04:36:11;3.58;;;1.85;;
39738;SDS011;25422;48.286;8.484;2024-01-25T04:38:37;6.35;;;1.10;;
39738;SDS011;25422;48.286;8.484;2024-01-25T04:41:02;3.75;;;1.38;;
39738;SDS011;25422;48.286;8.484;2024-01-25T04:43:27;1.27;;;1.00;;
39738;SDS011;25422;48.286;8.484;2024-01-25T04:45:53;3.65;;;1.17;;
39738;SDS011;25422;48.286;8.484;2024-01-25T04:48:18;3.55;;;1.20;;
39738;SDS011;25422;48.286;8.484;2024-01-25T04:50:44;3.83;;;1.02;;
39738;SDS011;25422;48.286;8.484;2024-01-25T04:53:09;2.35;;;1.00;;
39738;SDS011;25422;48.286;8.484;2024-01-25T04:55:34;3.33;;;1.00;;
39738;SDS011;25422;48.286;8.484;2024-01-25T04:58:00;1.23;;;0.90;;
39738;SDS011;25422;48.286;8.484;2024-01-25T05:00:25;3.45;;;1.27;;
39738;SDS011;25422;48.286;8.484;2024-01-25T05:02:51;1.70;;;1.00;;
39738;SDS011;25422;48.286;8.484;2024-01-25T05:05:17;1.25;;;1.10;;
39738;SDS011;25422;48.286;8.484;2024-01-25T05:07:42;3.00;;;1.08;;
39738;SDS011;25422;48.286;8.484;2024-01-25T05:10:08;2.33;;;1.10;;
39738;SDS011;25422;48.286;8.484;2024-01-25T05:12:33;0.90;;;0.90;;
39738;SDS011;25422;48.286;8.484;2024-01-25T05:14:59;6.10;;;1.67;;
39738;SDS011;25422;48.286;8.484;2024-01-25T05:17:24;1.98;;;1.00;;
39738;SDS011;25422;48.286;8.484;2024-01-25T05:19:50;11.65;;;4.53;;
39738;SDS011;25422;48.286;8.484;2024-01-25T05:22:15;3.35;;;1.77;;
39738;SDS011;25422;48.286;8.484;2024-01-25T05:24:41;5.63;;;2.40;;
39738;SDS011;25422;48.286;8.484;2024-01-25T05:27:07;5.72;;;1.80;;
39738;SDS011;25422;48.286;8.484;2024-01-25T05:29:32;4.13;;;1.30;;
39738;SDS011;25422;48.286;8.484;2024-01-25T05:31:58;2.47;;;1.33;;
39738;SDS011;25422;48.286;8.484;2024-01-25T05:34:23;3.10;;;1.33;;
39738;SDS011;25422;48.286;8.484;2024-01-25T05:36:49;4.72;;;1.80;;
39738;SDS011;25422;48.286;8.484;2024-01-25T05:39:15;5.20;;;1.77;;
39738;SDS011;25422;48.286;8.484;2024-01-25T05:41:41;7.57;;;1.73;;
39738;SDS011;25422;48.286;8.484;2024-01-25T05:44:06;4.15;;;1.58;;
39738;SDS011;25422;48.286;8.484;2024-01-25T05:46:31;7.88;;;1.40;;
39738;SDS011;25422;48.286;8.484;2024-01-25T05:48:57;4.03;;;1.50;;
39738;SDS011;25422;48.286;8.484;2024-01-25T05:51:22;3.58;;;1.42;;
39738;SDS011;25422;48.286;8.484;2024-01-25T05:53:48;5.97;;;1.33;;
39738;SDS011;25422;48.286;8.484;2024-01-25T05:56:13;6.50;;;1.50;;
39738;SDS011;25422;48.286;8.484;2024-01-25T05:58:38;2.95;;;1.42;;
39738;SDS011;25422;48.286;8.484;2024-01-25T06:01:04;12.27;;;6.03;;
39738;SDS011;25422;48.286;8.484;2024-01-25T06:03:29;3.78;;;1.90;;
39738;SDS011;25422;48.286;8.484;2024-01-25T06:05:55;5.32;;;1.63;;
39738;SDS011;25422;48.286;8.484;2024-01-25T06:08:20;2.95;;;1.40;;
39738;SDS011;25422;48.286;8.484;2024-01-25T06:10:46;2.85;;;1.42;;
39738;SDS011;25422;48.286;8.484;2024-01-25T06:13:11;4.88;;;1.33;;
39738;SDS011;25422;48.286;8.484;2024-01-25T06:15:37;4.40;;;1.40;;
39738;SDS011;25422;48.286;8.484;2024-01-25T06:18:03;5.13;;;1.30;;
39738;SDS011;25422;48.286;8.484;2024-01-25T06:20:29;9.98;;;1.80;;
39738;SDS011;25422;48.286;8.484;2024-01-25T06:22:55;4.95;;;1.35;;
39738;SDS011;25422;48.286;8.484;2024-01-25T06:25:20;4.32;;;1.50;;
39738;SDS011;25422;48.286;8.484;2024-01-25T06:27:45;8.50;;;1.48;;
39738;SDS011;25422;48.286;8.484;2024-01-25T06:30:11;6.72;;;1.60;;
39738;SDS011;25422;48.286;8.484;2024-01-25T06:32:37;3.70;;;1.70;;
39738;SDS011;25422;48.286;8.484;2024-01-25T06:35:03;4.57;;;1.75;;
39738;SDS011;25422;48.286;8.484;2024-01-25T06:37:29;6.75;;;1.52;;
39738;SDS011;25422;48.286;8.484;2024-01-25T06:39:55;6.43;;;1.65;;
39738;SDS011;25422;48.286;8.484;2024-01-25T06:42:20;4.85;;;1.52;;
39738;SDS011;25422;48.286;8.484;2024-01-25T06:44:45;4.82;;;1.65;;
39738;SDS011;25422;48.286;8.484;2024-01-25T06:47:11;6.85;;;1.50;;
39738;SDS011;25422;48.286;8.484;2024-01-25T06:49:36;6.10;;;3.35;;
39738;SDS011;25422;48.286;8.484;2024-01-25T06:52:02;3.97;;;1.23;;
39738;SDS011;25422;48.286;8.484;2024-01-25T06:54:28;4.03;;;1.40;;
39738;SDS011;25422;48.286;8.484;2024-01-25T06:56:54;2.50;;;1.13;;
39738;SDS011;25422;48.286;8.484;2024-01-25T06:59:21;8.45;;;1.63;;
39738;SDS011;25422;48.286;8.484;2024-01-25T07:01:46;4.32;;;1.30;;
39738;SDS011;25422;48.286;8.484;2024-01-25T07:04:12;4.50;;;1.45;;
39738;SDS011;25422;48.286;8.484;2024-01-25T07:06:37;6.30;;;1.75;;
39738;SDS011;25422;48.286;8.484;2024-01-25T07:09:03;7.18;;;1.73;;
39738;SDS011;25422;48.286;8.484;2024-01-25T07:11:29;5.82;;;1.73;;
39738;SDS011;25422;48.286;8.484;2024-01-25T07:13:54;7.80;;;1.67;;
39738;SDS011;25422;48.286;8.484;2024-01-25T07:16:19;6.75;;;1.80;;
39738;SDS011;25422;48.286;8.484;2024-01-25T07:18:45;4.57;;;1.83;;
39738;SDS011;25422;48.286;8.484;2024-01-25T07:21:11;5.68;;;1.70;;
39738;SDS011;25422;48.286;8.484;2024-01-25T07:23:36;5.43;;;1.80;;
39738;SDS011;25422;48.286;8.484;2024-01-25T07:26:02;7.90;;;2.22;;
39738;SDS011;25422;48.286;8.484;2024-01-25T07:28:27;6.93;;;2.75;;
39738;SDS011;25422;48.286;8.484;2024-01-25T07:30:53;14.32;;;2.00;;
39738;SDS011;25422;48.286;8.484;2024-01-25T07:33:18;8.70;;;2.47;;
39738;SDS011;25422;48.286;8.484;2024-01-25T07:35:43;6.55;;;1.83;;
39738;SDS011;25422;48.286;8.484;2024-01-25T07:38:13;10.55;;;2.00;;
39738;SDS011;25422;48.286;8.484;2024-01-25T07:40:39;7.13;;;2.47;;
39738;SDS011;25422;48.286;8.484;2024-01-25T07:43:04;12.32;;;3.30;;
39738;SDS011;25422;48.286;8.484;2024-01-25T07:45:31;11.75;;;4.18;;
39738;SDS011;25422;48.286;8.484;2024-01-25T07:47:56;9.95;;;3.22;;
39738;SDS011;25422;48.286;8.484;2024-01-25T07:50:22;10.70;;;2.60;;
39738;SDS011;25422;48.286;8.484;2024-01-25T07:52:47;12.20;;;2.90;;
39738;SDS011;25422;48.286;8.484;2024-01-25T07:55:15;9.68;;;2.47;;
39738;SDS011;25422;48.286;8.484;2024-01-25T07:57:41;7.45;;;3.17;;
39738;SDS011;25422;48.286;8.484;2024-01-25T08:00:07;10.75;;;2.78;;
39738;SDS011;25422;48.286;8.484;2024-01-25T08:02:34;8.85;;;2.50;;
39738;SDS011;25422;48.286;8.484;2024-01-25T08:05:00;12.95;;;2.67;;
39738;SDS011;25422;48.286;8.484;2024-01-25T08:07:25;11.70;;;3.03;;
39738;SDS011;25422;48.286;8.484;2024-01-25T08:09:50;11.43;;;2.30;;
39738;SDS011;25422;48.286;8.484;2024-01-25T08:12:17;10.18;;;2.50;;
39738;SDS011;25422;48.286;8.484;2024-01-25T08:14:43;8.80;;;2.13;;
39738;SDS011;25422;48.286;8.484;2024-01-25T08:17:09;10.18;;;2.67;;
39738;SDS011;25422;48.286;8.484;2024-01-25T08:19:35;13.82;;;2.25;;
39738;SDS011;25422;48.286;8.484;2024-01-25T08:22:00;12.13;;;2.55;;
39738;SDS011;25422;48.286;8.484;2024-01-25T08:24:27;11.45;;;3.25;;
39738;SDS011;25422;48.286;8.484;2024-01-25T08:26:52;14.48;;;3.78;;
39738;SDS011;25422;48.286;8.484;2024-01-25T08:29:18;10.90;;;2.60;;
39738;SDS011;25422;48.286;8.484;2024-01-25T08:31:43;11.27;;;2.70;;
39738;SDS011;25422;48.286;8.484;2024-01-25T08:34:09;15.45;;;2.90;;
39738;SDS011;25422;48.286;8.484;2024-01-25T08:36:34;8.50;;;3.00;;
39738;SDS011;25422;48.286;8.484;2024-01-25T08:39:00;10.27;;;5.40;;
39738;SDS011;25422;48.286;8.484;2024-01-25T08:41:25;14.65;;;6.43;;
39738;SDS011;25422;48.286;8.484;2024-01-25T08:43:50;21.63;;;8.48;;
39738;SDS011;25422;48.286;8.484;2024-01-25T08:46:16;19.65;;;7.22;;
39738;SDS011;25422;48.286;8.484;2024-01-25T08:48:41;14.85;;;6.07;;
39738;SDS011;25422;48.286;8.484;2024-01-25T08:51:07;14.23;;;5.20;;
39738;SDS011;25422;48.286;8.484;2024-01-25T08:53:33;13.75;;;5.18;;
39738;SDS011;25422;48.286;8.484;2024-01-25T08:55:58;14.10;;;3.55;;
39738;SDS011;25422;48.286;8.484;2024-01-25T08:58:24;10.70;;;3.40;;
39738;SDS011;25422;48.286;8.484;2024-01-25T09:00:50;14.20;;;3.50;;
39738;SDS011;25422;48.286;8.484;2024-01-25T09:03:16;17.67;;;3.90;;
39738;SDS011;25422;48.286;8.484;2024-01-25T09:05:41;12.30;;;3.17;;
39738;SDS011;25422;48.286;8.484;2024-01-25T09:08:11;12.68;;;2.50;;
39738;SDS011;25422;48.286;8.484;2024-01-25T09:10:40;15.23;;;2.42;;
39738;SDS011;25422;48.286;8.484;2024-01-25T09:13:06;11.77;;;2.80;;
39738;SDS011;25422;48.286;8.484;2024-01-25T09:15:32;9.95;;;2.38;;
39738;SDS011;25422;48.286;8.484;2024-01-25T09:17:57;12.85;;;2.22;;
39738;SDS011;25422;48.286;8.484;2024-01-25T09:20:23;9.13;;;2.28;;
39738;SDS011;25422;48.286;8.484;2024-01-25T09:22:48;11.55;;;2.20;;
39738;SDS011;25422;48.286;8.484;2024-01-25T09:25:13;15.50;;;3.25;;
39738;SDS011;25422;48.286;8.484;2024-01-25T09:27:39;10.38;;;2.63;;
39738;SDS011;25422;48.286;8.484;2024-01-25T09:30:05;16.55;;;3.75;;
39738;SDS011;25422;48.286;8.484;2024-01-25T09:32:31;14.18;;;4.97;;
39738;SDS011;25422;48.286;8.484;2024-01-25T09:34:56;12.70;;;3.42;;
39738;SDS011;25422;48.286;8.484;2024-01-25T09:37:22;9.52;;;2.92;;
39738;SDS011;25422;48.286;8.484;2024-01-25T09:39:49;11.73;;;2.40;;
39738;SDS011;25422;48.286;8.484;2024-01-25T09:42:18;7.75;;;2.33;;
39738;SDS011;25422;48.286;8.484;2024-01-25T09:44:44;9.38;;;2.00;;
39738;SDS011;25422;48.286;8.484;2024-01-25T09:47:09;8.25;;;2.55;;
39738;SDS011;25422;48.286;8.484;2024-01-25T09:49:36;10.60;;;2.53;;
39738;SDS011;25422;48.286;8.484;2024-01-25T09:52:02;11.40;;;2.67;;
39738;SDS011;25422;48.286;8.484;2024-01-25T09:54:30;9.43;;;2.28;;
39738;SDS011;25422;48.286;8.484;2024-01-25T09:57:00;7.85;;;2.67;;
39738;SDS011;25422;48.286;8.484;2024-01-25T09:59:31;10.13;;;3.08;;
39738;SDS011;25422;48.286;8.484;2024-01-25T10:01:56;11.60;;;3.28;;
39738;SDS011;25422;48.286;8.484;2024-01-25T10:04:23;9.90;;;2.85;;
39738;SDS011;25422;48.286;8.484;2024-01-25T10:06:49;12.27;;;3.20;;
39738;SDS011;25422;48.286;8.484;2024-01-25T10:09:15;13.48;;;3.53;;
39738;SDS011;25422;48.286;8.484;2024-01-25T10:11:40;13.70;;;2.67;;
39738;SDS011;25422;48.286;8.484;2024-01-25T10:14:05;13.52;;;3.20;;
39738;SDS011;25422;48.286;8.484;2024-01-25T10:16:33;14.77;;;3.15;;
39738;SDS011;25422;48.286;8.484;2024-01-25T10:19:00;16.48;;;3.50;;
39738;SDS011;25422;48.286;8.484;2024-01-25T10:21:27;17.30;;;2.97;;
39738;SDS011;25422;48.286;8.484;2024-01-25T10:23:54;16.85;;;3.15;;
39738;SDS011;25422;48.286;8.484;2024-01-25T10:26:25;14.02;;;3.33;;
39738;SDS011;25422;48.286;8.484;2024-01-25T10:28:54;18.15;;;3.88;;
39738;SDS011;25422;48.286;8.484;2024-01-25T10:31:23;17.50;;;3.95;;
39738;SDS011;25422;48.286;8.484;2024-01-25T10:33:52;19.80;;;5.15;;
39738;SDS011;25422;48.286;8.484;2024-01-25T10:36:20;11.20;;;3.42;;
39738;SDS011;25422;48.286;8.484;2024-01-25T10:38:46;14.45;;;2.83;;
39738;SDS011;25422;48.286;8.484;2024-01-25T10:41:13;15.38;;;3.20;;
39738;SDS011;25422;48.286;8.484;2024-01-25T10:43:39;13.30;;;3.90;;
39738;SDS011;25422;48.286;8.484;2024-01-25T10:46:06;15.48;;;2.95;;
39738;SDS011;25422;48.286;8.484;2024-01-25T10:48:32;15.48;;;4.25;;
39738;SDS011;25422;48.286;8.484;2024-01-25T10:50:58;21.98;;;7.10;;
39738;SDS011;25422;48.286;8.484;2024-01-25T10:53:29;22.25;;;6.57;;
39738;SDS011;25422;48.286;8.484;2024-01-25T10:55:57;9.25;;;2.60;;
39738;SDS011;25422;48.286;8.484;2024-01-25T10:58:24;10.93;;;3.10;;
39738;SDS011;25422;48.286;8.484;2024-01-25T11:00:54;8.70;;;2.78;;
39738;SDS011;25422;48.286;8.484;2024-01-25T11:03:29;10.95;;;2.35;;
39738;SDS011;25422;48.286;8.484;2024-01-25T11:06:10;6.88;;;2.13;;
39738;SDS011;25422;48.286;8.484;2024-01-25T11:08:36;7.78;;;2.20;;
39738;SDS011;25422;48.286;8.484;2024-01-25T11:11:06;8.55;;;2.22;;
39738;SDS011;25422;48.286;8.484;2024-01-25T11:13:34;9.25;;;2.15;;
39738;SDS011;25422;48.286;8.484;2024-01-25T11:18:51;8.20;;;2.13;;
39738;SDS011;25422;48.286;8.484;2024-01-25T11:21:24;7.35;;;2.45;;
39738;SDS011;25422;48.286;8.484;2024-01-25T11:23:58;6.45;;;2.85;;
39738;SDS011;25422;48.286;8.484;2024-01-25T11:26:25;5.93;;;2.25;;
39738;SDS011;25422;48.286;8.484;2024-01-25T11:28:51;5.18;;;1.90;;
39738;SDS011;25422;48.286;8.484;2024-01-25T11:31:16;5.07;;;1.70;;
39738;SDS011;25422;48.286;8.484;2024-01-25T11:33:43;4.38;;;1.60;;
39738;SDS011;25422;48.286;8.484;2024-01-25T11:36:09;5.22;;;1.40;;
39738;SDS011;25422;48.286;8.484;2024-01-25T11:38:36;3.33;;;1.25;;
39738;SDS011;25422;48.286;8.484;2024-01-25T11:41:02;4.10;;;1.02;;
39738;SDS011;25422;48.286;8.484;2024-01-25T11:43:27;2.42;;;1.05;;
39738;SDS011;25422;48.286;8.484;2024-01-25T11:45:53;3.38;;;1.10;;
39738;SDS011;25422;48.286;8.484;2024-01-25T11:48:18;3.00;;;0.98;;
39738;SDS011;25422;48.286;8.484;2024-01-25T11:50:44;2.15;;;1.00;;
39738;SDS011;25422;48.286;8.484;2024-01-25T11:53:09;2.97;;;1.05;;
39738;SDS011;25422;48.286;8.484;2024-01-25T11:55:35;2.65;;;0.95;;
39738;SDS011;25422;48.286;8.484;2024-01-25T11:58:00;1.80;;;1.08;;
39738;SDS011;25422;48.286;8.484;2024-01-25T12:00:26;2.53;;;1.77;;
39738;SDS011;25422;48.286;8.484;2024-01-25T12:02:52;9.85;;;5.13;;
39738;SDS011;25422;48.286;8.484;2024-01-25T12:05:19;23.05;;;14.10;;
39738;SDS011;25422;48.286;8.484;2024-01-25T12:07:45;14.43;;;8.95;;
39738;SDS011;25422;48.286;8.484;2024-01-25T12:10:15;8.52;;;4.18;;
39738;SDS011;25422;48.286;8.484;2024-01-25T12:12:44;1.80;;;1.48;;
39738;SDS011;25422;48.286;8.484;2024-01-25T12:15:09;1.33;;;0.80;;
39738;SDS011;25422;48.286;8.484;2024-01-25T12:17:35;1.30;;;0.82;;
39738;SDS011;25422;48.286;8.484;2024-01-25T12:20:07;1.77;;;1.13;;
39738;SDS011;25422;48.286;8.484;2024-01-25T12:22:36;1.30;;;1.20;;
39738;SDS011;25422;48.286;8.484;2024-01-25T12:25:02;2.15;;;1.00;;
39738;SDS011;25422;48.286;8.484;2024-01-25T12:27:32;1.95;;;1.00;;
39738;SDS011;25422;48.286;8.484;2024-01-25T12:29:58;1.75;;;1.20;;
39738;SDS011;25422;48.286;8.484;2024-01-25T12:32:24;2.08;;;1.27;;
39738;SDS011;25422;48.286;8.484;2024-01-25T12:34:56;6.10;;;4.22;;
39738;SDS011;25422;48.286;8.484;2024-01-25T12:37:28;1.25;;;1.10;;
39738;SDS011;25422;48.286;8.484;2024-01-25T12:39:54;0.70;;;0.70;;
39738;SDS011;25422;48.286;8.484;2024-01-25T12:42:20;1.25;;;1.10;;
39738;SDS011;25422;48.286;8.484;2024-01-25T12:44:46;0.98;;;0.85;;
39738;SDS011;25422;48.286;8.484;2024-01-25T12:47:13;1.33;;;1.23;;
39738;SDS011;25422;48.286;8.484;2024-01-25T12:49:40;2.67;;;1.20;;
39738;SDS011;25422;48.286;8.484;2024-01-25T12:52:07;3.95;;;2.88;;
39738;SDS011;25422;48.286;8.484;2024-01-25T12:54:33;0.73;;;0.73;;
39738;SDS011;25422;48.286;8.484;2024-01-25T12:56:59;1.77;;;0.90;;
39738;SDS011;25422;48.286;8.484;2024-01-25T12:59:24;1.67;;;1.00;;
39738;SDS011;25422;48.286;8.484;2024-01-25T13:01:50;0.80;;;0.80;;
39738;SDS011;25422;48.286;8.484;2024-01-25T13:04:15;2.20;;;1.90;;
39738;SDS011;25422;48.286;8.484;2024-01-25T13:06:41;3.47;;;2.20;;
39738;SDS011;25422;48.286;8.484;2024-01-25T13:09:06;2.25;;;0.80;;
39738;SDS011;25422;48.286;8.484;2024-01-25T13:11:31;1.00;;;1.00;;
39738;SDS011;25422;48.286;8.484;2024-01-25T13:13:57;1.00;;;0.90;;
39738;SDS011;25422;48.286;8.484;2024-01-25T13:16:22;0.65;;;0.50;;
39738;SDS011;25422;48.286;8.484;2024-01-25T13:18:48;0.93;;;0.85;;
39738;SDS011;25422;48.286;8.484;2024-01-25T13:21:13;1.63;;;0.90;;
39738;SDS011;25422;48.286;8.484;2024-01-25T13:23:39;1.25;;;1.17;;
39738;SDS011;25422;48.286;8.484;2024-01-25T13:26:04;1.10;;;1.00;;
39738;SDS011;25422;48.286;8.484;2024-01-25T13:28:29;0.50;;;0.50;;
39738;SDS011;25422;48.286;8.484;2024-01-25T13:30:56;1.45;;;0.80;;
39738;SDS011;25422;48.286;8.484;2024-01-25T13:33:22;1.23;;;1.13;;
39738;SDS011;25422;48.286;8.484;2024-01-25T13:35:48;1.38;;;1.27;;
39738;SDS011;25422;48.286;8.484;2024-01-25T13:38:13;0.98;;;0.63;;
39738;SDS011;25422;48.286;8.484;2024-01-25T13:40:40;0.50;;;0.50;;
39738;SDS011;25422;48.286;8.484;2024-01-25T13:43:06;0.75;;;0.73;;
39738;SDS011;25422;48.286;8.484;2024-01-25T13:45:31;0.73;;;0.70;;
39738;SDS011;25422;48.286;8.484;2024-01-25T13:47:56;0.70;;;0.70;;
39738;SDS011;25422;48.286;8.484;2024-01-25T13:50:22;1.00;;;0.90;;
39738;SDS011;25422;48.286;8.484;2024-01-25T13:52:47;1.75;;;1.50;;
39738;SDS011;25422;48.286;8.484;2024-01-25T13:55:13;5.63;;;3.55;;
39738;SDS011;25422;48.286;8.484;2024-01-25T13:57:38;8.55;;;5.50;;
39738;SDS011;25422;48.286;8.484;2024-01-25T14:00:04;1.08;;;1.00;;
39738;SDS011;25422;48.286;8.484;2024-01-25T14:02:31;16.30;;;6.57;;
39738;SDS011;25422;48.286;8.484;2024-01-25T14:04:57;0.50;;;0.50;;
39738;SDS011;25422;48.286;8.484;2024-01-25T14:07:23;2.53;;;2.17;;
39738;SDS011;25422;48.286;8.484;2024-01-25T14:09:48;1.10;;;0.90;;
39738;SDS011;25422;48.286;8.484;2024-01-25T14:12:14;2.33;;;1.67;;
39738;SDS011;25422;48.286;8.484;2024-01-25T14:14:41;1.08;;;0.98;;
39738;SDS011;25422;48.286;8.484;2024-01-25T14:17:06;0.52;;;0.47;;
39738;SDS011;25422;48.286;8.484;2024-01-25T14:19:32;0.52;;;0.52;;
39738;SDS011;25422;48.286;8.484;2024-01-25T14:21:57;0.50;;;0.50;;
39738;SDS011;25422;48.286;8.484;2024-01-25T14:24:23;0.70;;;0.70;;
39738;SDS011;25422;48.286;8.484;2024-01-25T14:26:48;0.65;;;0.65;;
39738;SDS011;25422;48.286;8.484;2024-01-25T14:29:14;3.70;;;3.40;;
39738;SDS011;25422;48.286;8.484;2024-01-25T14:31:39;1.80;;;1.50;;
39738;SDS011;25422;48.286;8.484;2024-01-25T14:34:06;1.67;;;1.58;;
39738;SDS011;25422;48.286;8.484;2024-01-25T14:36:33;34.70;;;17.48;;
39738;SDS011;25422;48.286;8.484;2024-01-25T14:38:58;10.50;;;6.30;;